Aérodrome :
LOGIN :

S'inscrire | Disclaimer

   EN    FR    IT 

 










Légende :    VFR   VFR Marginal   IFR   IFR Intensif   IFR Très Intensif
Visi : 
Plafond : 
>= 8 km
>= 3000ft
5 à 8 km
1000 à 3000 ft
1500m à 5 km
500 à 1000 ft
800 à 1500m
200 à 500 ft
< 800m
< 200 ft
Symboles :   Orages  Brouillard  Fortes neiges  Fortes précipitations  Vent > 20 kt
SIGMETs :   Divers  Orages  Givrage  Turbulence  Onde Orograph.  Cendres Volcan.






- Altitude de l'aérodrome : 584 ft


LFPV - Villacoublay Vélizy

DERNIER METAR :
  • 260600Z AUTO 23008KT 0400 0350 R27/0400N R09/0400N FG VV/// 07/07 Q1022 TEMPO 0800 FG

METARs EXPIRÉS :
  • 260530Z AUTO 23008KT 0350 0300 R27/0375N R09/0375N FG VV/// 07/07 Q1022 TEMPO 0800 FG
  • 260500Z AUTO 23006KT 0400 0350 R27/0450D R09/0400D FG VV/// 07/07 Q1022 TEMPO 0800 FG
  • 260430Z AUTO VRB01KT 0600 0500 R27/0700D R09/0600D FG VV/// 06/06 Q1022 TEMPO 0800 FG
  • 260400Z AUTO 25002KT 0700 0600 R27/0800N R09/0700D FG FEW011 07/07 Q1022 TEMPO 0800 FG VV///
  • 260330Z AUTO VRB02KT 1100 0600 R27/0750D R09/1300D BCFG NSC 07/07 Q1022 TEMPO 3000 BR VV///

TAF TAF LFPV
Valide du 26 à 03h jusqu'au 27 à 03h UTC


260200Z 2603/2703 25005KT 3000 BR OVC002 TX14/2615Z TN06/2605Z
TEMPO 2605/2609 0800 FG VV///
BECMG 2610/2612 9999 NSW SCT012
FM261400 23008KT 9999 BKN012
BECMG 2617/2619 BKN040



MET'MAP, la Météo Aéronautique d'un coup d'oeil ! - Copyright ORBIFLY Décembre 2007 - Disclaimer

ORBIFLY MET'MAP TEAM :

Programmation & Développement : Alexandra Zaïnal
Sur une idée originale de : Baudouin d'Aumeries
Assistance à la programmation : Marc-Olivier Méhu
Soutien technique & logistique : Manuel Goepfert

Contact : metmap@orbifly.com




SOURCES & CREDITS :

   NOAA